sensor_id;sensor_type;location;lat;lon;timestamp;pressure;altitude;pressure_sealevel;temperature;humidity
36600;BME280;35385;55.668;37.508;2022-12-16T00:00:48;-235585.84;;;51.32;0.00
36600;BME280;35385;55.668;37.508;2022-12-16T00:01:49;-235687.88;;;51.30;0.00
36600;BME280;35385;55.668;37.508;2022-12-16T00:02:49;-236063.31;;;51.25;0.00
36600;BME280;35385;55.668;37.508;2022-12-16T00:03:54;-236541.13;;;51.19;0.00
36600;BME280;35385;55.668;37.508;2022-12-16T00:04:55;-236312.19;;;51.22;0.00
36600;BME280;35385;55.668;37.508;2022-12-16T00:05:56;-236144.13;;;51.24;0.00
36600;BME280;35385;55.668;37.508;2022-12-16T00:06:57;-236389.56;;;51.21;0.00
36600;BME280;35385;55.668;37.508;2022-12-16T00:07:57;-236326.16;;;51.22;0.00
36600;BME280;35385;55.668;37.508;2022-12-16T00:08:57;-236209.50;;;51.23;0.00
36600;BME280;35385;55.668;37.508;2022-12-16T00:09:58;-236011.91;;;51.26;0.00
36600;BME280;35385;55.668;37.508;2022-12-16T00:10:59;-235841.31;;;51.28;0.00
36600;BME280;35385;55.668;37.508;2022-12-16T00:11:59;-235788.47;;;51.29;0.00
36600;BME280;35385;55.668;37.508;2022-12-16T00:13:00;-236082.03;;;51.25;0.00
36600;BME280;35385;55.668;37.508;2022-12-16T00:14:00;-236335.50;;;51.22;0.00
36600;BME280;35385;55.668;37.508;2022-12-16T00:15:01;-236287.88;;;51.22;0.00
36600;BME280;35385;55.668;37.508;2022-12-16T00:16:11;-236408.22;;;51.21;0.00
36600;BME280;35385;55.668;37.508;2022-12-16T00:17:11;-236540.19;;;51.19;0.00
36600;BME280;35385;55.668;37.508;2022-12-16T00:18:12;-236354.19;;;51.22;0.00
36600;BME280;35385;55.668;37.508;2022-12-16T00:19:13;-236478.22;;;51.20;0.00
36600;BME280;35385;55.668;37.508;2022-12-16T00:20:13;-236608.75;;;51.18;0.00
36600;BME280;35385;55.668;37.508;2022-12-16T00:21:14;-236803.84;;;51.16;0.00
36600;BME280;35385;55.668;37.508;2022-12-16T00:22:17;-236862.97;;;51.15;0.00
36600;BME280;35385;55.668;37.508;2022-12-16T00:23:18;-236775.81;;;51.16;0.00
36600;BME280;35385;55.668;37.508;2022-12-16T00:24:18;-236540.19;;;51.19;0.00
36600;BME280;35385;55.668;37.508;2022-12-16T00:25:18;-236735.91;;;51.16;0.00
36600;BME280;35385;55.668;37.508;2022-12-16T00:26:19;-236716.34;;;51.17;0.00
36600;BME280;35385;55.668;37.508;2022-12-16T00:27:19;-236822.56;;;51.16;0.00
36600;BME280;35385;55.668;37.508;2022-12-16T00:28:20;-236540.19;;;51.19;0.00
36600;BME280;35385;55.668;37.508;2022-12-16T00:29:22;-236554.22;;;51.19;0.00
36600;BME280;35385;55.668;37.508;2022-12-16T00:30:22;-236363.53;;;51.22;0.00
36600;BME280;35385;55.668;37.508;2022-12-16T00:31:22;-236172.13;;;51.24;0.00
36600;BME280;35385;55.668;37.508;2022-12-16T00:32:23;-236242.19;;;51.23;0.00
36600;BME280;35385;55.668;37.508;2022-12-16T00:33:24;-236172.13;;;51.24;0.00
36600;BME280;35385;55.668;37.508;2022-12-16T00:34:25;-236354.19;;;51.22;0.00
36600;BME280;35385;55.668;37.508;2022-12-16T00:35:25;-236496.88;;;51.20;0.00
36600;BME280;35385;55.668;37.508;2022-12-16T00:36:25;-236592.47;;;51.19;0.00
36600;BME280;35385;55.668;37.508;2022-12-16T00:37:26;-236636.78;;;51.18;0.00
36600;BME280;35385;55.668;37.508;2022-12-16T00:38:27;-236822.56;;;51.16;0.00
36600;BME280;35385;55.668;37.508;2022-12-16T00:39:27;-236944.88;;;51.14;0.00
36600;BME280;35385;55.668;37.508;2022-12-16T00:40:28;-237076.53;;;51.12;0.00
36600;BME280;35385;55.668;37.508;2022-12-16T00:41:28;-236881.69;;;51.15;0.00
36600;BME280;35385;55.668;37.508;2022-12-16T00:42:28;-236891.00;;;51.15;0.00
36600;BME280;35385;55.668;37.508;2022-12-16T00:43:29;-236754.56;;;51.16;0.00
36600;BME280;35385;55.668;37.508;2022-12-16T00:44:29;-236700.06;;;51.17;0.00
36600;BME280;35385;55.668;37.508;2022-12-16T00:45:30;-236686.09;;;51.17;0.00
36600;BME280;35385;55.668;37.508;2022-12-16T00:46:30;-236436.25;;;51.21;0.00
36600;BME280;35385;55.668;37.508;2022-12-16T00:47:31;-236181.47;;;51.24;0.00
36600;BME280;35385;55.668;37.508;2022-12-16T00:48:31;-236251.50;;;51.23;0.00
36600;BME280;35385;55.668;37.508;2022-12-16T00:49:31;-236515.56;;;51.20;0.00
36600;BME280;35385;55.668;37.508;2022-12-16T00:50:32;-236568.22;;;51.19;0.00
36600;BME280;35385;55.668;37.508;2022-12-16T00:51:32;-236382.22;;;51.22;0.00
36600;BME280;35385;55.668;37.508;2022-12-16T00:52:33;-236646.09;;;51.18;0.00
36600;BME280;35385;55.668;37.508;2022-12-16T00:53:33;-236792.25;;;51.16;0.00
36600;BME280;35385;55.668;37.508;2022-12-16T00:54:34;-236822.56;;;51.16;0.00
36600;BME280;35385;55.668;37.508;2022-12-16T00:55:35;-236994.66;;;51.13;0.00
36600;BME280;35385;55.668;37.508;2022-12-16T00:56:35;-237067.22;;;51.12;0.00
36600;BME280;35385;55.668;37.508;2022-12-16T00:57:36;-237228.94;;;51.10;0.00
36600;BME280;35385;55.668;37.508;2022-12-16T00:58:36;-237107.59;;;51.11;0.00
36600;BME280;35385;55.668;37.508;2022-12-16T00:59:37;-236985.34;;;51.13;0.00
36600;BME280;35385;55.668;37.508;2022-12-16T01:00:37;-237067.22;;;51.12;0.00
36600;BME280;35385;55.668;37.508;2022-12-16T01:01:37;-237126.25;;;51.11;0.00
36600;BME280;35385;55.668;37.508;2022-12-16T01:02:41;-236994.66;;;51.13;0.00
36600;BME280;35385;55.668;37.508;2022-12-16T01:03:42;-237228.94;;;51.10;0.00
36600;BME280;35385;55.668;37.508;2022-12-16T01:04:43;-237349.69;;;51.08;0.00
36600;BME280;35385;55.668;37.508;2022-12-16T01:05:43;-237361.19;;;51.08;2.58
36600;BME280;35385;55.668;37.508;2022-12-16T01:06:43;-237243.78;;;51.10;0.00
36600;BME280;35385;55.668;37.508;2022-12-16T01:07:45;-237248.44;;;51.10;0.00
36600;BME280;35385;55.668;37.508;2022-12-16T01:08:46;-237229.75;;;51.10;0.00
36600;BME280;35385;55.668;37.508;2022-12-16T01:09:49;-237511.22;;;51.06;13.47
36600;BME280;35385;55.668;37.508;2022-12-16T01:10:50;-237520.56;;;51.06;13.46
36600;BME280;35385;55.668;37.508;2022-12-16T01:11:51;-237619.13;;;51.04;23.11
36600;BME280;35385;55.668;37.508;2022-12-16T01:12:51;-237492.56;;;51.06;13.47
36600;BME280;35385;55.668;37.508;2022-12-16T01:13:52;-237300.84;;;51.09;0.00
36600;BME280;35385;55.668;37.508;2022-12-16T01:14:52;-237427.56;;;51.07;8.20
36600;BME280;35385;55.668;37.508;2022-12-16T01:15:53;-237704.16;;;51.03;28.33
36600;BME280;35385;55.668;37.508;2022-12-16T01:16:53;-237875.44;;;51.01;43.87
36600;BME280;35385;55.668;37.508;2022-12-16T01:17:54;-238069.31;;;50.98;58.85
36600;BME280;35385;55.668;37.508;2022-12-16T01:18:54;-238130.81;;;50.97;63.96
36600;BME280;35385;55.668;37.508;2022-12-16T01:19:55;-238271.03;;;50.96;74.20
36600;BME280;35385;55.668;37.508;2022-12-16T01:21:00;-238392.50;;;50.94;84.67
36600;BME280;35385;55.668;37.508;2022-12-16T01:22:01;-238542.53;;;50.92;96.73
36600;BME280;35385;55.668;37.508;2022-12-16T01:23:01;-238441.84;;;50.93;89.70
36600;BME280;35385;55.668;37.508;2022-12-16T01:24:02;-238252.38;;;50.96;74.18
36600;BME280;35385;55.668;37.508;2022-12-16T01:25:02;-238060.00;;;50.98;58.89
36600;BME280;35385;55.668;37.508;2022-12-16T01:26:03;-238074.00;;;50.98;58.89
36600;BME280;35385;55.668;37.508;2022-12-16T01:27:03;-237846.69;;;51.01;41.06
36600;BME280;35385;55.668;37.508;2022-12-16T01:28:04;-237811.94;;;51.02;38.72
36600;BME280;35385;55.668;37.508;2022-12-16T01:29:04;-237999.88;;;50.99;54.55
36600;BME280;35385;55.668;37.508;2022-12-16T01:30:05;-237952.38;;;51.00;49.39
36600;BME280;35385;55.668;37.508;2022-12-16T01:31:06;-237745.69;;;51.03;33.53
36600;BME280;35385;55.668;37.508;2022-12-16T01:32:07;-237957.03;;;51.00;49.40
36600;BME280;35385;55.668;37.508;2022-12-16T01:33:09;-238088.03;;;50.98;58.86
36600;BME280;35385;55.668;37.508;2022-12-16T01:34:10;-238331.09;;;50.95;79.28
36600;BME280;35385;55.668;37.508;2022-12-16T01:35:10;-238373.81;;;50.94;84.67
36600;BME280;35385;55.668;37.508;2022-12-16T01:36:12;-238392.50;;;50.94;84.69
36600;BME280;35385;55.668;37.508;2022-12-16T01:37:12;-238296.44;;;50.95;77.27
36600;BME280;35385;55.668;37.508;2022-12-16T01:38:13;-238451.16;;;50.93;89.72
36600;BME280;35385;55.668;37.508;2022-12-16T01:39:14;-238773.75;;;50.89;100.00
36600;BME280;35385;55.668;37.508;2022-12-16T01:40:15;-238573.91;;;50.91;98.96
36600;BME280;35385;55.668;37.508;2022-12-16T01:41:16;-238345.19;;;50.94;82.33
36600;BME280;35385;55.668;37.508;2022-12-16T01:42:18;-238446.50;;;50.93;89.73
36600;BME280;35385;55.668;37.508;2022-12-16T01:43:22;-238189.56;;;50.97;69.10
36600;BME280;35385;55.668;37.508;2022-12-16T01:44:24;-238326.44;;;50.95;79.23
36600;BME280;35385;55.668;37.508;2022-12-16T01:45:30;-238261.72;;;50.96;74.18
36600;BME280;35385;55.668;37.508;2022-12-16T01:46:31;-238331.09;;;50.95;79.21
36600;BME280;35385;55.668;37.508;2022-12-16T01:47:32;-238408.53;;;50.93;86.60
36600;BME280;35385;55.668;37.508;2022-12-16T01:48:34;-238635.19;;;50.90;100.00
36600;BME280;35385;55.668;37.508;2022-12-16T01:49:57;-238591.22;;;50.91;100.00
36600;BME280;35385;55.668;37.508;2022-12-16T01:51:04;-238578.56;;;50.91;98.91
36600;BME280;35385;55.668;37.508;2022-12-16T01:52:07;-238669.81;;;50.90;100.00
36600;BME280;35385;55.668;37.508;2022-12-16T01:53:08;-238957.50;;;50.86;100.00
36600;BME280;35385;55.668;37.508;2022-12-16T01:54:10;-238957.50;;;50.86;100.00
36600;BME280;35385;55.668;37.508;2022-12-16T01:55:46;-239337.63;;;50.81;100.00
36600;BME280;35385;55.668;37.508;2022-12-16T01:56:40;-239410.78;;;50.80;100.00
36600;BME280;35385;55.668;37.508;2022-12-16T01:57:47;-239469.16;;;50.79;100.00
36600;BME280;35385;55.668;37.508;2022-12-16T01:58:48;-239199.44;;;50.83;100.00
36600;BME280;35385;55.668;37.508;2022-12-16T01:59:50;-239015.97;;;50.85;100.00
36600;BME280;35385;55.668;37.508;2022-12-16T02:00:51;-238836.38;;;50.88;100.00
36600;BME280;35385;55.668;37.508;2022-12-16T02:01:51;-239001.97;;;50.85;100.00
36600;BME280;35385;55.668;37.508;2022-12-16T02:02:52;-238938.78;;;50.86;100.00
36600;BME280;35385;55.668;37.508;2022-12-16T02:03:53;-239087.84;;;50.84;100.00
36600;BME280;35385;55.668;37.508;2022-12-16T02:04:54;-239328.31;;;50.81;100.00
36600;BME280;35385;55.668;37.508;2022-12-16T02:06:13;-239445.81;;;50.79;100.00
36600;BME280;35385;55.668;37.508;2022-12-16T02:07:13;-239271.78;;;50.81;100.00
36600;BME280;35385;55.668;37.508;2022-12-16T02:08:15;-239290.47;;;50.81;100.00
36600;BME280;35385;55.668;37.508;2022-12-16T02:09:16;-239459.81;;;50.79;100.00
36600;BME280;35385;55.668;37.508;2022-12-16T02:10:16;-239241.88;;;50.82;100.00
36600;BME280;35385;55.668;37.508;2022-12-16T02:11:25;-239459.81;;;50.79;100.00
36600;BME280;35385;55.668;37.508;2022-12-16T02:12:49;-239694.50;;;50.76;100.00
36600;BME280;35385;55.668;37.508;2022-12-16T02:15:08;-239741.66;;;50.75;100.00
36600;BME280;35385;55.668;37.508;2022-12-16T02:16:14;-239641.53;;;50.76;100.00
36600;BME280;35385;55.668;37.508;2022-12-16T02:18:28;-239459.81;;;50.79;100.00
36600;BME280;35385;55.668;37.508;2022-12-16T02:24:10;-240024.44;;;50.71;100.00
36600;BME280;35385;55.668;37.508;2022-12-16T02:24:42;-239968.22;;;50.72;100.00
36600;BME280;35385;55.668;37.508;2022-12-16T02:29:37;-240265.06;;;50.68;100.00
36600;BME280;35385;55.668;37.508;2022-12-16T02:31:06;-240566.09;;;50.63;100.00
36600;BME280;35385;55.668;37.508;2022-12-16T02:35:17;-240485.06;;;50.65;100.00
36600;BME280;35385;55.668;37.508;2022-12-16T02:39:54;-240255.72;;;50.68;100.00
36600;BME280;35385;55.668;37.508;2022-12-16T02:41:00;-240207.28;;;50.68;100.00
36600;BME280;35385;55.668;37.508;2022-12-16T02:42:12;-240124.75;;;50.69;100.00
36600;BME280;35385;55.668;37.508;2022-12-16T02:46:12;-240665.75;;;50.62;100.00
36600;BME280;35385;55.668;37.508;2022-12-16T02:47:13;-240575.44;;;50.63;100.00
36600;BME280;35385;55.668;37.508;2022-12-16T02:48:13;-240575.44;;;50.63;100.00
36600;BME280;35385;55.668;37.508;2022-12-16T02:50:16;-240566.09;;;50.63;100.00
36600;BME280;35385;55.668;37.508;2022-12-16T02:51:17;-240575.44;;;50.63;100.00
36600;BME280;35385;55.668;37.508;2022-12-16T02:52:18;-240383.91;;;50.66;100.00
36600;BME280;35385;55.668;37.508;2022-12-16T02:53:19;-240274.41;;;50.68;100.00
36600;BME280;35385;55.668;37.508;2022-12-16T02:54:20;-240524.06;;;50.64;100.00
36600;BME280;35385;55.668;37.508;2022-12-16T02:55:24;-240964.53;;;50.58;100.00
36600;BME280;35385;55.668;37.508;2022-12-16T02:59:13;-240570.75;;;50.63;100.00
36600;BME280;35385;55.668;37.508;2022-12-16T03:00:17;-240959.88;;;50.58;100.00
36600;BME280;35385;55.668;37.508;2022-12-16T03:02:27;-241037.38;;;50.57;100.00
36600;BME280;35385;55.668;37.508;2022-12-16T03:03:39;-241185.28;;;50.55;100.00
36600;BME280;35385;55.668;37.508;2022-12-16T03:04:43;-241524.88;;;50.50;100.00
36600;BME280;35385;55.668;37.508;2022-12-16T03:05:49;-241483.31;;;50.51;100.00
36600;BME280;35385;55.668;37.508;2022-12-16T03:06:51;-241255.13;;;50.54;100.00
36600;BME280;35385;55.668;37.508;2022-12-16T03:07:54;-241300.03;;;50.53;100.00
36600;BME280;35385;55.668;37.508;2022-12-16T03:08:57;-241127.50;;;50.56;100.00
36600;BME280;35385;55.668;37.508;2022-12-16T03:09:58;-241385.34;;;50.52;100.00
36600;BME280;35385;55.668;37.508;2022-12-16T03:11:00;-241626.94;;;50.49;100.00
36600;BME280;35385;55.668;37.508;2022-12-16T03:12:02;-241873.53;;;50.45;100.00
36600;BME280;35385;55.668;37.508;2022-12-16T03:13:03;-242133.09;;;50.42;100.00
36600;BME280;35385;55.668;37.508;2022-12-16T03:14:05;-241953.75;;;50.44;100.00
36600;BME280;35385;55.668;37.508;2022-12-16T03:15:06;-241825.25;;;50.46;100.00
36600;BME280;35385;55.668;37.508;2022-12-16T03:16:07;-241626.94;;;50.49;100.00
36600;BME280;35385;55.668;37.508;2022-12-16T03:17:09;-241506.19;;;50.50;100.00
36600;BME280;35385;55.668;37.508;2022-12-16T03:18:11;-241724.78;;;50.47;100.00
36600;BME280;35385;55.668;37.508;2022-12-16T03:19:12;-241873.53;;;50.45;100.00
36600;BME280;35385;55.668;37.508;2022-12-16T03:20:23;-241693.94;;;50.48;100.00
36600;BME280;35385;55.668;37.508;2022-12-16T03:21:27;-241236.44;;;50.54;100.00
36600;BME280;35385;55.668;37.508;2022-12-16T03:22:28;-241217.56;;;50.54;100.00
36600;BME280;35385;55.668;37.508;2022-12-16T03:23:34;-241366.66;;;50.52;100.00
36600;BME280;35385;55.668;37.508;2022-12-16T03:24:36;-241546.53;;;50.49;100.00
36600;BME280;35385;55.668;37.508;2022-12-16T03:25:40;-241873.53;;;50.45;100.00
36600;BME280;35385;55.668;37.508;2022-12-16T03:26:52;-242009.34;;;50.43;100.00
36600;BME280;35385;55.668;37.508;2022-12-16T03:28:00;-242114.41;;;50.42;100.00
36600;BME280;35385;55.668;37.508;2022-12-16T03:29:10;-242052.88;;;50.42;100.00
36600;BME280;35385;55.668;37.508;2022-12-16T03:30:25;-241665.91;;;50.48;100.00
36600;BME280;35385;55.668;37.508;2022-12-16T03:32:32;-241751.03;;;50.46;100.00
36600;BME280;35385;55.668;37.508;2022-12-16T03:33:38;-241859.50;;;50.45;100.00
36600;BME280;35385;55.668;37.508;2022-12-16T03:35:24;-242318.28;;;50.38;100.00
36600;BME280;35385;55.668;37.508;2022-12-16T03:36:23;-242355.03;;;50.38;100.00
36600;BME280;35385;55.668;37.508;2022-12-16T03:37:26;-242205.38;;;50.40;100.00
36600;BME280;35385;55.668;37.508;2022-12-16T03:38:28;-242403.13;;;50.37;100.00
36600;BME280;35385;55.668;37.508;2022-12-16T03:39:30;-242524.59;;;50.35;100.00
36600;BME280;35385;55.668;37.508;2022-12-16T03:40:32;-242501.22;;;50.35;100.00
36600;BME280;35385;55.668;37.508;2022-12-16T03:41:33;-242186.69;;;50.40;100.00
36600;BME280;35385;55.668;37.508;2022-12-16T03:42:34;-242242.16;;;50.39;100.00
36600;BME280;35385;55.668;37.508;2022-12-16T03:43:35;-242001.47;;;50.42;100.00
36600;BME280;35385;55.668;37.508;2022-12-16T03:44:37;-242030.25;;;50.42;100.00
36600;BME280;35385;55.668;37.508;2022-12-16T03:45:38;-242417.81;;;50.36;100.00
36600;BME280;35385;55.668;37.508;2022-12-16T03:46:39;-242127.88;;;50.41;100.00
36600;BME280;35385;55.668;37.508;2022-12-16T03:47:40;-241929.94;;;50.43;100.00
36600;BME280;35385;55.668;37.508;2022-12-16T03:48:47;-242127.88;;;50.41;100.00
36600;BME280;35385;55.668;37.508;2022-12-16T03:49:48;-242177.34;;;50.40;100.00
36600;BME280;35385;55.668;37.508;2022-12-16T03:50:49;-242147.94;;;50.40;100.00
36600;BME280;35385;55.668;37.508;2022-12-16T03:51:49;-241897.78;;;50.44;100.00
36600;BME280;35385;55.668;37.508;2022-12-16T03:52:50;-241798.75;;;50.45;100.00
36600;BME280;35385;55.668;37.508;2022-12-16T03:53:50;-241803.44;;;50.45;100.00
36600;BME280;35385;55.668;37.508;2022-12-16T03:54:50;-241869.69;;;50.44;100.00
36600;BME280;35385;55.668;37.508;2022-12-16T03:55:54;-241925.28;;;50.43;100.00
36600;BME280;35385;55.668;37.508;2022-12-16T03:56:54;-241978.13;;;50.42;100.00
36600;BME280;35385;55.668;37.508;2022-12-16T03:57:55;-242049.03;;;50.42;100.00
36600;BME280;35385;55.668;37.508;2022-12-16T03:58:56;-242109.19;;;50.41;100.00
36600;BME280;35385;55.668;37.508;2022-12-16T03:59:57;-242319.00;;;50.38;100.00
36600;BME280;35385;55.668;37.508;2022-12-16T04:00:57;-242525.91;;;50.35;100.00
36600;BME280;35385;55.668;37.508;2022-12-16T04:01:59;-242496.53;;;50.35;100.00
36600;BME280;35385;55.668;37.508;2022-12-16T04:02:59;-242647.25;;;50.33;100.00
36600;BME280;35385;55.668;37.508;2022-12-16T04:03:59;-242587.25;;;50.34;100.00
36600;BME280;35385;55.668;37.508;2022-12-16T04:05:00;-242319.00;;;50.37;100.00
36600;BME280;35385;55.668;37.508;2022-12-16T04:06:00;-242587.25;;;50.34;100.00
36600;BME280;35385;55.668;37.508;2022-12-16T04:07:00;-242568.56;;;50.34;100.00
36600;BME280;35385;55.668;37.508;2022-12-16T04:08:19;-242459.16;;;50.35;100.00
36600;BME280;35385;55.668;37.508;2022-12-16T04:09:19;-242351.06;;;50.37;100.00
36600;BME280;35385;55.668;37.508;2022-12-16T04:10:20;-242540.53;;;50.34;100.00
36600;BME280;35385;55.668;37.508;2022-12-16T04:11:40;-242431.16;;;50.35;100.00
36600;BME280;35385;55.668;37.508;2022-12-16T04:12:59;-242361.75;;;50.36;100.00
36600;BME280;35385;55.668;37.508;2022-12-16T04:14:18;-242493.19;;;50.35;100.00
36600;BME280;35385;55.668;37.508;2022-12-16T04:15:37;-242659.16;;;50.32;100.00
36600;BME280;35385;55.668;37.508;2022-12-16T04:16:55;-242819.03;;;50.30;100.00
36600;BME280;35385;55.668;37.508;2022-12-16T04:18:16;-242830.97;;;50.29;100.00
36600;BME280;35385;55.668;37.508;2022-12-16T04:19:36;-242581.81;;;50.33;100.00
36600;BME280;35385;55.668;37.508;2022-12-16T04:20:55;-242735.78;;;50.31;100.00
36600;BME280;35385;55.668;37.508;2022-12-16T04:22:21;-242752.38;;;50.30;100.00
36600;BME280;35385;55.668;37.508;2022-12-16T04:23:46;-243099.69;;;50.25;100.00
36600;BME280;35385;55.668;37.508;2022-12-16T04:25:07;-242870.88;;;50.28;100.00
36600;BME280;35385;55.668;37.508;2022-12-16T04:26:08;-243188.75;;;50.24;100.00
36600;BME280;35385;55.668;37.508;2022-12-16T04:27:08;-243550.41;;;50.19;0.00
36600;BME280;35385;55.668;37.508;2022-12-16T04:28:24;-243427.75;;;50.21;0.00
36600;BME280;35385;55.668;37.508;2022-12-16T04:29:24;-243681.13;;;50.17;0.00
36600;BME280;35385;55.668;37.508;2022-12-16T04:30:25;-244166.81;;;50.10;0.00
36600;BME280;35385;55.668;37.508;2022-12-16T04:31:27;-244226.28;;;50.09;0.00
36600;BME280;35385;55.668;37.508;2022-12-16T04:32:27;-244039.84;;;50.12;0.00
36600;BME280;35385;55.668;37.508;2022-12-16T04:33:48;-244102.66;;;50.11;0.00
36600;BME280;35385;55.668;37.508;2022-12-16T04:35:07;-243969.63;;;50.13;0.00
36600;BME280;35385;55.668;37.508;2022-12-16T04:36:25;-244359.13;;;50.07;0.00
36600;BME280;35385;55.668;37.508;2022-12-16T04:37:44;-244236.66;;;50.09;0.00
36600;BME280;35385;55.668;37.508;2022-12-16T04:39:03;-244079.34;;;50.11;0.00
36600;BME280;35385;55.668;37.508;2022-12-16T04:40:22;-244207.59;;;50.09;0.00
36600;BME280;35385;55.668;37.508;2022-12-16T04:41:41;-244395.19;;;50.07;0.00
36600;BME280;35385;55.668;37.508;2022-12-16T04:42:59;-244326.44;;;50.07;0.00
36600;BME280;35385;55.668;37.508;2022-12-16T04:44:18;-243882.09;;;50.14;0.00
36600;BME280;35385;55.668;37.508;2022-12-16T04:45:37;-244120.09;;;50.10;0.00
36600;BME280;35385;55.668;37.508;2022-12-16T04:46:56;-244307.72;;;50.07;0.00
36600;BME280;35385;55.668;37.508;2022-12-16T04:48:15;-244746.47;;;50.01;0.00
36600;BME280;35385;55.668;37.508;2022-12-16T04:49:33;-245309.09;;;49.93;0.00
36600;BME280;35385;55.668;37.508;2022-12-16T04:50:52;-245006.69;;;49.98;0.00
36600;BME280;35385;55.668;37.508;2022-12-16T04:52:11;-245488.88;;;49.91;0.00
36600;BME280;35385;55.668;37.508;2022-12-16T04:53:30;-245035.25;;;49.97;0.00
36600;BME280;35385;55.668;37.508;2022-12-16T04:54:49;-245109.69;;;49.96;0.00
36600;BME280;35385;55.668;37.508;2022-12-16T04:56:07;-245025.88;;;49.97;0.00
36600;BME280;35385;55.668;37.508;2022-12-16T04:57:26;-245224.59;;;49.94;0.00
36600;BME280;35385;55.668;37.508;2022-12-16T04:58:45;-245840.03;;;49.85;0.00
36600;BME280;35385;55.668;37.508;2022-12-16T05:00:04;-245519.88;;;49.90;0.00
36600;BME280;35385;55.668;37.508;2022-12-16T05:01:23;-245293.91;;;49.93;0.00
36600;BME280;35385;55.668;37.508;2022-12-16T05:02:42;-245645.88;;;49.88;0.00
36600;BME280;35385;55.668;37.508;2022-12-16T05:04:00;-245067.66;;;49.96;0.00
36600;BME280;35385;55.668;37.508;2022-12-16T05:05:19;-244970.25;;;49.97;0.00
36600;BME280;35385;55.668;37.508;2022-12-16T05:06:38;-244635.81;;;50.02;0.00
36600;BME280;35385;55.668;37.508;2022-12-16T05:07:57;-244724.06;;;50.01;0.00
36600;BME280;35385;55.668;37.508;2022-12-16T05:09:16;-245373.78;;;49.92;0.00
36600;BME280;35385;55.668;37.508;2022-12-16T05:10:35;-245128.09;;;49.95;0.00
36600;BME280;35385;55.668;37.508;2022-12-16T05:11:53;-244743.66;;;50.00;0.00
36600;BME280;35385;55.668;37.508;2022-12-16T05:13:12;-244922.59;;;49.98;0.00
36600;BME280;35385;55.668;37.508;2022-12-16T05:14:31;-245364.47;;;49.92;0.00
36600;BME280;35385;55.668;37.508;2022-12-16T05:15:49;-245883.63;;;49.84;0.00
36600;BME280;35385;55.668;37.508;2022-12-16T05:17:08;-245718.34;;;49.86;0.00
36600;BME280;35385;55.668;37.508;2022-12-16T05:18:27;-245382.63;;;49.91;0.00
36600;BME280;35385;55.668;37.508;2022-12-16T05:19:45;-244992.03;;;49.96;0.00
36600;BME280;35385;55.668;37.508;2022-12-16T05:21:04;-245215.69;;;49.93;0.00
36600;BME280;35385;55.668;37.508;2022-12-16T05:22:23;-245463.78;;;49.90;0.00
36600;BME280;35385;55.668;37.508;2022-12-16T05:23:42;-246073.59;;;49.81;0.00
36600;BME280;35385;55.668;37.508;2022-12-16T05:25:00;-246203.09;;;49.79;0.00
36600;BME280;35385;55.668;37.508;2022-12-16T05:26:19;-246247.84;;;49.78;0.00
36600;BME280;35385;55.668;37.508;2022-12-16T05:27:38;-245819.50;;;49.85;0.00
36600;BME280;35385;55.668;37.508;2022-12-16T05:28:56;-245935.16;;;49.83;0.00
36600;BME280;35385;55.668;37.508;2022-12-16T05:30:15;-245765.28;;;49.85;0.00
36600;BME280;35385;55.668;37.508;2022-12-16T05:31:34;-245867.00;;;49.84;0.00
36600;BME280;35385;55.668;37.508;2022-12-16T05:32:53;-245492.16;;;49.89;0.00
36600;BME280;35385;55.668;37.508;2022-12-16T05:34:12;-245727.91;;;49.85;0.00
36600;BME280;35385;55.668;37.508;2022-12-16T05:35:30;-245680.97;;;49.86;0.00
36600;BME280;35385;55.668;37.508;2022-12-16T05:36:49;-246287.84;;;49.78;0.00
36600;BME280;35385;55.668;37.508;2022-12-16T05:38:08;-245603.34;;;49.87;0.00
36600;BME280;35385;55.668;37.508;2022-12-16T05:39:26;-245407.75;;;49.90;0.00
36600;BME280;35385;55.668;37.508;2022-12-16T05:40:45;-245848.28;;;49.84;0.00
36600;BME280;35385;55.668;37.508;2022-12-16T05:42:04;-246259.81;;;49.78;0.00
36600;BME280;35385;55.668;37.508;2022-12-16T05:43:23;-245879.13;;;49.83;0.00
36600;BME280;35385;55.668;37.508;2022-12-16T05:44:41;-246182.44;;;49.78;0.00
36600;BME280;35385;55.668;37.508;2022-12-16T05:46:00;-245919.25;;;49.82;0.00
36600;BME280;35385;55.668;37.508;2022-12-16T05:47:19;-246132.38;;;49.79;0.00
36600;BME280;35385;55.668;37.508;2022-12-16T05:48:38;-245898.56;;;49.82;0.00
36600;BME280;35385;55.668;37.508;2022-12-16T05:49:56;-245994.16;;;49.81;0.00
36600;BME280;35385;55.668;37.508;2022-12-16T05:51:15;-246665.69;;;49.71;0.00
36600;BME280;35385;55.668;37.508;2022-12-16T05:52:34;-246907.13;;;49.68;0.00
36600;BME280;35385;55.668;37.508;2022-12-16T05:53:53;-246651.69;;;49.71;0.00
36600;BME280;35385;55.668;37.508;2022-12-16T05:55:11;-246691.59;;;49.70;0.00
36600;BME280;35385;55.668;37.508;2022-12-16T05:56:30;-247079.91;;;49.65;0.00
36600;BME280;35385;55.668;37.508;2022-12-16T05:57:51;-246759.47;;;49.70;0.00
36600;BME280;35385;55.668;37.508;2022-12-16T05:59:10;-246433.81;;;49.74;0.00
36600;BME280;35385;55.668;37.508;2022-12-16T06:00:29;-245764.22;;;49.84;0.00
36600;BME280;35385;55.668;37.508;2022-12-16T06:01:48;-245656.53;;;49.85;0.00
36600;BME280;35385;55.668;37.508;2022-12-16T06:03:06;-246085.69;;;49.79;0.00
36600;BME280;35385;55.668;37.508;2022-12-16T06:04:25;-246157.03;;;49.78;0.00
36600;BME280;35385;55.668;37.508;2022-12-16T06:05:44;-245795.06;;;49.83;0.00
36600;BME280;35385;55.668;37.508;2022-12-16T06:07:02;-246166.41;;;49.78;0.00
36600;BME280;35385;55.668;37.508;2022-12-16T06:08:21;-246208.50;;;49.77;0.00